createdAt,value
2019-04-14T00:00:27.723Z,0
2019-04-14T00:01:26.781Z,0
2019-04-14T00:02:27.183Z,0
2019-04-14T00:03:26.914Z,0
2019-04-14T00:04:27.031Z,0
2019-04-14T00:05:27.925Z,0
2019-04-14T00:06:28.685Z,0
2019-04-14T00:07:28.186Z,0
2019-04-14T00:08:28.158Z,0
2019-04-14T00:09:27.380Z,0
2019-04-14T00:10:27.342Z,0
2019-04-14T00:11:27.998Z,0
2019-04-14T00:12:27.522Z,0
2019-04-14T00:13:28.496Z,0
2019-04-14T00:14:29.349Z,0
2019-04-14T00:15:35.282Z,0
2019-04-14T00:16:29.157Z,0
2019-04-14T00:17:28.749Z,0
2019-04-14T00:18:27.823Z,0
2019-04-14T00:19:28.358Z,0
2019-04-14T00:20:27.975Z,0
2019-04-14T00:21:28.200Z,0
2019-04-14T00:22:30.321Z,0
2019-04-14T00:23:28.277Z,0
2019-04-14T00:24:29.092Z,0
2019-04-14T00:25:28.365Z,0
2019-04-14T00:26:29.278Z,0
2019-04-14T00:27:30.258Z,0
2019-04-14T00:28:29.474Z,0
2019-04-14T00:29:28.528Z,0
2019-04-14T00:30:29.454Z,0
2019-04-14T00:31:30.707Z,0
2019-04-14T00:32:29.732Z,0
2019-04-14T00:33:28.775Z,0
2019-04-14T00:34:35.911Z,0
2019-04-14T00:35:29.882Z,0
2019-04-14T00:36:30.454Z,0
2019-04-14T00:37:30.111Z,0
2019-04-14T00:38:30.203Z,0
2019-04-14T00:39:29.463Z,0
2019-04-14T00:40:29.914Z,0
2019-04-14T00:41:39.337Z,0
2019-04-14T00:42:30.310Z,0
2019-04-14T00:43:29.377Z,0
2019-04-14T00:44:29.652Z,0
2019-04-14T00:45:36.903Z,0
2019-04-14T00:46:32.408Z,0
2019-04-14T00:47:29.568Z,0
2019-04-14T00:48:31.917Z,0
2019-04-14T00:49:29.651Z,0
2019-04-14T00:50:29.855Z,0
2019-04-14T00:51:30.861Z,0
2019-04-14T00:52:31.850Z,0
2019-04-14T00:53:29.856Z,0
2019-04-14T00:54:30.405Z,0
2019-04-14T00:55:31.452Z,0
2019-04-14T00:56:30.150Z,0
2019-04-14T00:57:31.213Z,0
2019-04-14T00:58:30.326Z,0
2019-04-14T00:59:31.193Z,0
2019-04-14T01:00:31.994Z,0
2019-04-14T01:01:32.696Z,0
2019-04-14T01:02:31.759Z,0
2019-04-14T01:03:30.921Z,0
2019-04-14T01:04:31.602Z,0
2019-04-14T01:05:34.177Z,0
2019-04-14T01:06:31.979Z,0
2019-04-14T01:07:31.010Z,0
2019-04-14T01:08:31.398Z,0
2019-04-14T01:09:31.166Z,0
2019-04-14T01:10:32.174Z,0
2019-04-14T01:11:31.400Z,0
2019-04-14T01:12:32.091Z,0
2019-04-14T01:13:33.261Z,0
2019-04-14T01:14:32.571Z,0
2019-04-14T01:15:44.657Z,0
2019-04-14T01:16:33.996Z,0
2019-04-14T01:17:32.955Z,0
2019-04-14T01:18:31.994Z,0
2019-04-14T01:19:32.979Z,0
2019-04-14T01:20:31.988Z,0
2019-04-14T01:21:32.776Z,0
2019-04-14T01:22:33.459Z,0
2019-04-14T01:23:32.625Z,0
2019-04-14T01:24:33.542Z,0
2019-04-14T01:25:32.470Z,0
2019-04-14T01:26:33.175Z,0
2019-04-14T01:27:34.188Z,0
2019-04-14T01:28:33.590Z,0
2019-04-14T01:29:32.642Z,0
2019-04-14T01:30:32.768Z,0
2019-04-14T01:31:33.768Z,0
2019-04-14T01:32:34.993Z,0
2019-04-14T01:33:33.666Z,0
2019-04-14T01:34:34.738Z,0
2019-04-14T01:35:33.943Z,0
2019-04-14T01:36:33.000Z,0
2019-04-14T01:37:33.290Z,0
2019-04-14T01:38:34.254Z,0
2019-04-14T01:39:35.021Z,0
2019-04-14T01:40:34.248Z,0
2019-04-14T01:41:34.584Z,0
2019-04-14T01:42:33.485Z,0
2019-04-14T01:43:34.157Z,0
2019-04-14T01:44:35.208Z,0
2019-04-14T01:45:34.592Z,0
2019-04-14T01:46:34.576Z,0
2019-04-14T01:47:33.750Z,0
2019-04-14T01:48:34.598Z,0
2019-04-14T01:49:35.422Z,0
2019-04-14T01:50:34.902Z,0
2019-04-14T01:51:35.183Z,0
2019-04-14T01:52:34.182Z,0
2019-04-14T01:53:35.712Z,0
2019-04-14T01:54:35.206Z,0
2019-04-14T01:55:35.187Z,0
2019-04-14T01:56:34.329Z,0
2019-04-14T01:57:34.998Z,0
2019-04-14T01:58:36.078Z,0
2019-04-14T01:59:34.884Z,0
2019-04-14T02:00:35.613Z,0
2019-04-14T02:01:34.739Z,0
2019-04-14T02:02:35.843Z,0
2019-04-14T02:03:34.890Z,0
2019-04-14T02:04:35.521Z,0
2019-04-14T02:05:36.408Z,0
2019-04-14T02:06:36.073Z,0
2019-04-14T02:07:36.155Z,0
2019-04-14T02:08:35.278Z,0
2019-04-14T02:09:35.724Z,0
2019-04-14T02:10:36.846Z,0
2019-04-14T02:11:35.594Z,0
2019-04-14T02:12:36.584Z,0
2019-04-14T02:13:37.523Z,0
2019-04-14T02:14:36.577Z,0
2019-04-14T02:15:35.717Z,0
2019-04-14T02:16:41.766Z,0
2019-04-14T02:17:37.092Z,0
2019-04-14T02:18:36.215Z,0
2019-04-14T02:19:37.117Z,0
2019-04-14T02:20:36.087Z,0
2019-04-14T02:21:36.677Z,0
2019-04-14T02:22:37.571Z,0
2019-04-14T02:23:36.572Z,0
2019-04-14T02:24:37.423Z,0
2019-04-14T02:25:38.211Z,0
2019-04-14T02:26:37.307Z,0
2019-04-14T02:27:38.200Z,0
2019-04-14T02:28:37.606Z,0
2019-04-14T02:29:36.555Z,0
2019-04-14T02:30:44.055Z,0
2019-04-14T02:31:59.451Z,0
2019-04-14T02:33:03.135Z,0
2019-04-14T02:33:57.925Z,0
2019-04-14T02:35:01.592Z,0
2019-04-14T02:37:04.293Z,0
2019-04-14T02:38:11.722Z,0
2019-04-14T02:39:20.156Z,0
2019-04-14T02:40:00.247Z,0
2019-04-14T02:42:17.095Z,0
2019-04-14T02:43:02.497Z,0
2019-04-14T02:46:01.465Z,0
2019-04-14T02:48:14.307Z,0
2019-04-14T02:49:18.241Z,0
2019-04-14T02:50:16.934Z,0
2019-04-14T02:51:03.994Z,0
2019-04-14T02:52:03.889Z,0
2019-04-14T02:53:07.213Z,0
2019-04-14T02:56:07.365Z,0
2019-04-14T02:57:09.489Z,0
2019-04-14T02:58:09.692Z,0
2019-04-14T03:01:06.695Z,0
2019-04-14T03:03:08.649Z,0
2019-04-14T03:05:01.550Z,0
2019-04-14T03:07:04.515Z,0
2019-04-14T03:10:00.529Z,0
2019-04-14T03:11:00.845Z,0
2019-04-14T03:12:00.260Z,0
2019-04-14T03:13:05.350Z,0
2019-04-14T03:14:06.006Z,0
2019-04-14T03:15:06.766Z,0
2019-04-14T03:16:01.400Z,0
2019-04-14T03:18:23.743Z,0
2019-04-14T03:20:13.426Z,0
2019-04-14T03:21:03.261Z,0
2019-04-14T03:22:12.139Z,0
2019-04-14T03:23:04.739Z,0
2019-04-14T03:24:02.971Z,0
2019-04-14T03:24:50.125Z,0
2019-04-14T03:25:56.741Z,0
2019-04-14T03:27:03.935Z,0
2019-04-14T03:28:06.521Z,0
2019-04-14T03:28:56.063Z,0
2019-04-14T03:30:16.148Z,0
2019-04-14T03:31:24.256Z,0
2019-04-14T03:35:19.322Z,0
2019-04-14T03:37:28.749Z,0
2019-04-14T03:39:23.089Z,0
2019-04-14T03:40:08.130Z,0
2019-04-14T03:41:08.329Z,0
2019-04-14T03:43:09.687Z,0
2019-04-14T03:44:00.928Z,0
2019-04-14T03:45:03.377Z,0
2019-04-14T03:46:08.983Z,0
2019-04-14T03:47:05.054Z,0
2019-04-14T03:48:33.537Z,0
2019-04-14T03:49:05.773Z,0
2019-04-14T03:50:05.706Z,0
2019-04-14T03:51:08.080Z,0
2019-04-14T03:53:15.625Z,0
2019-04-14T03:53:57.408Z,0
2019-04-14T03:54:56.263Z,0
2019-04-14T03:55:46.789Z,0
2019-04-14T03:56:40.125Z,0
2019-04-14T03:57:39.174Z,0
2019-04-14T03:58:39.982Z,0
2019-04-14T03:59:41.258Z,0
2019-04-14T04:00:40.356Z,0
2019-04-14T04:01:39.422Z,1
2019-04-14T04:02:40.172Z,1
2019-04-14T04:03:39.527Z,0
2019-04-14T04:04:40.609Z,1
2019-04-14T04:05:39.719Z,1
2019-04-14T04:06:39.958Z,1
2019-04-14T04:07:41.002Z,1
2019-04-14T04:08:39.929Z,1
2019-04-14T04:09:41.031Z,2
2019-04-14T04:10:40.078Z,2
2019-04-14T04:11:41.148Z,3
2019-04-14T04:12:42.099Z,3
2019-04-14T04:13:41.157Z,4
2019-04-14T04:14:40.207Z,5
2019-04-14T04:15:41.181Z,5
2019-04-14T04:16:41.897Z,6
2019-04-14T04:17:41.506Z,8
2019-04-14T04:18:50.730Z,9
2019-04-14T04:19:42.606Z,10
2019-04-14T04:20:41.287Z,13
2019-04-14T04:21:42.302Z,15
2019-04-14T04:22:41.192Z,17
2019-04-14T04:23:40.908Z,20
2019-04-14T04:24:41.117Z,23
2019-04-14T04:25:42.094Z,26
2019-04-14T04:26:41.118Z,31
2019-04-14T04:27:41.892Z,36
2019-04-14T04:28:41.259Z,41
2019-04-14T04:29:41.959Z,47
2019-04-14T04:30:42.609Z,54
2019-04-14T04:31:41.739Z,61
2019-04-14T04:32:42.408Z,68
2019-04-14T04:33:41.555Z,75
2019-04-14T04:34:42.326Z,85
2019-04-14T04:35:43.593Z,92
2019-04-14T04:36:42.721Z,102
2019-04-14T04:37:43.325Z,114
2019-04-14T04:38:42.090Z,125
2019-04-14T04:39:43.175Z,137
2019-04-14T04:40:41.994Z,150
2019-04-14T04:41:42.866Z,161
2019-04-14T04:42:43.681Z,174
2019-04-14T04:43:43.082Z,187
2019-04-14T04:44:42.223Z,205
2019-04-14T04:45:43.092Z,220
2019-04-14T04:46:43.808Z,235
2019-04-14T04:47:43.267Z,252
2019-04-14T04:48:43.572Z,278
2019-04-14T04:49:44.598Z,298
2019-04-14T04:50:43.132Z,323
2019-04-14T04:51:44.299Z,349
2019-04-14T04:52:43.651Z,374
2019-04-14T04:53:42.663Z,393
2019-04-14T04:54:42.862Z,414
2019-04-14T04:55:43.909Z,446
2019-04-14T04:56:42.747Z,472
2019-04-14T04:57:43.538Z,493
2019-04-14T04:58:43.475Z,506
2019-04-14T04:59:43.045Z,548
2019-04-14T05:00:43.880Z,561
2019-04-14T05:01:45.056Z,607
2019-04-14T05:02:43.872Z,608
2019-04-14T05:03:44.938Z,656
2019-04-14T05:04:44.135Z,654
2019-04-14T05:05:43.154Z,692
2019-04-14T05:06:43.721Z,752
2019-04-14T05:07:44.806Z,731
2019-04-14T05:08:43.466Z,795
2019-04-14T05:09:43.216Z,823
2019-04-14T05:10:43.593Z,852
2019-04-14T05:11:43.240Z,869
2019-04-14T05:12:45.546Z,930
2019-04-14T05:13:44.450Z,943
2019-04-14T05:14:43.550Z,954
2019-04-14T05:15:44.574Z,1013
2019-04-14T05:16:44.748Z,1067
2019-04-14T05:17:45.160Z,1081
2019-04-14T05:18:44.184Z,1089
2019-04-14T05:19:43.912Z,1164
2019-04-14T05:20:44.142Z,1191
2019-04-14T05:21:45.198Z,1204
2019-04-14T05:22:44.100Z,1240
2019-04-14T05:23:45.225Z,1298
2019-04-14T05:24:44.283Z,1351
2019-04-14T05:25:45.190Z,1349
2019-04-14T05:26:45.969Z,1384
2019-04-14T05:27:45.565Z,1420
2019-04-14T05:28:44.536Z,1486
2019-04-14T05:29:45.044Z,1511
2019-04-14T05:30:45.708Z,1552
2019-04-14T05:31:44.739Z,1591
2019-04-14T05:32:45.504Z,1620
2019-04-14T05:33:44.822Z,1671
2019-04-14T05:34:45.441Z,1694
2019-04-14T05:35:46.663Z,1676
2019-04-14T05:36:45.892Z,1769
2019-04-14T05:37:44.910Z,1817
2019-04-14T05:38:45.042Z,1829
2019-04-14T05:39:46.091Z,1878
2019-04-14T05:40:45.087Z,1929
2019-04-14T05:41:56.621Z,1964
2019-04-14T05:42:47.244Z,1967
2019-04-14T05:43:50.100Z,2027
2019-04-14T05:44:47.115Z,2070
2019-04-14T05:45:46.358Z,2088
2019-04-14T05:46:45.342Z,2132
2019-04-14T05:47:45.775Z,2244
2019-04-14T05:48:45.509Z,2258
2019-04-14T05:49:50.015Z,2309
2019-04-14T05:50:46.885Z,2275
2019-04-14T05:51:45.951Z,2281
2019-04-14T05:52:45.687Z,2375
2019-04-14T05:53:45.916Z,2415
2019-04-14T05:54:47.058Z,2450
2019-04-14T05:55:46.083Z,2488
2019-04-14T05:56:47.048Z,2572
2019-04-14T05:57:46.156Z,2576
2019-04-14T05:58:47.134Z,2619
2019-04-14T05:59:48.320Z,2670
2019-04-14T06:00:46.430Z,2702
2019-04-14T06:01:47.331Z,2842
2019-04-14T06:02:48.372Z,2864
2019-04-14T06:03:47.490Z,2889
2019-04-14T06:04:48.230Z,2976
2019-04-14T06:05:47.815Z,2982
2019-04-14T06:06:46.817Z,3016
2019-04-14T06:07:46.876Z,3062
2019-04-14T06:08:46.897Z,3117
2019-04-14T06:09:47.014Z,3213
2019-04-14T06:10:47.564Z,3185
2019-04-14T06:11:47.135Z,3259
2019-04-14T06:12:47.178Z,3292
2019-04-14T06:13:47.182Z,3316
2019-04-14T06:14:47.188Z,3424
2019-04-14T06:15:47.244Z,3527
2019-04-14T06:16:47.243Z,3543
2019-04-14T06:17:48.412Z,3535
2019-04-14T06:18:47.442Z,3433
2019-04-14T06:19:47.473Z,3512
2019-04-14T06:20:47.508Z,3502
2019-04-14T06:21:47.557Z,3518
2019-04-14T06:22:47.542Z,3608
2019-04-14T06:23:47.540Z,3714
2019-04-14T06:24:47.582Z,3721
2019-04-14T06:25:47.668Z,3757
2019-04-14T06:26:47.703Z,3852
2019-04-14T06:27:47.704Z,3922
2019-04-14T06:28:47.712Z,3970
2019-04-14T06:29:47.725Z,4000
2019-04-14T06:30:47.737Z,4067
2019-04-14T06:31:47.777Z,3974
2019-04-14T06:32:47.834Z,4136
2019-04-14T06:33:47.820Z,4137
2019-04-14T06:34:47.840Z,4261
2019-04-14T06:35:47.843Z,4273
2019-04-14T06:36:47.888Z,4365
2019-04-14T06:37:47.917Z,4378
2019-04-14T06:38:47.950Z,4325
2019-04-14T06:39:47.983Z,4667
2019-04-14T06:40:47.997Z,4765
2019-04-14T06:41:48.028Z,4488
2019-04-14T06:42:48.054Z,4795
2019-04-14T06:43:48.847Z,4713
2019-04-14T06:44:48.209Z,4759
2019-04-14T06:45:48.215Z,4805
2019-04-14T06:46:48.245Z,4806
2019-04-14T06:47:48.245Z,4915
2019-04-14T06:48:48.250Z,4947
2019-04-14T06:49:49.306Z,4923
2019-04-14T06:50:48.255Z,5009
2019-04-14T06:51:48.282Z,5072
2019-04-14T06:52:48.274Z,4920
2019-04-14T06:53:48.288Z,5156
2019-04-14T06:54:48.295Z,5620
2019-04-14T06:55:48.349Z,5523
2019-04-14T06:56:48.361Z,5340
2019-04-14T06:57:48.371Z,5341
2019-04-14T06:58:48.383Z,5414
2019-04-14T06:59:48.407Z,5541
2019-04-14T07:00:48.413Z,5520
2019-04-14T07:01:48.474Z,5522
2019-04-14T07:02:49.475Z,5512
2019-04-14T07:03:48.482Z,5676
2019-04-14T07:04:48.507Z,5826
2019-04-14T07:05:48.518Z,6094
2019-04-14T07:06:51.169Z,6029
2019-04-14T07:07:56.685Z,6193
2019-04-14T07:08:48.711Z,6025
2019-04-14T07:09:48.724Z,6105
2019-04-14T07:10:48.787Z,6107
2019-04-14T07:11:48.808Z,6693
2019-04-14T07:12:48.864Z,6277
2019-04-14T07:13:48.852Z,6408
2019-04-14T07:14:48.874Z,6430
2019-04-14T07:15:48.880Z,6937
2019-04-14T07:16:51.267Z,7095
2019-04-14T07:17:48.961Z,6702
2019-04-14T07:18:48.973Z,6734
2019-04-14T07:20:00.926Z,6985
2019-04-14T07:20:50.102Z,7827
2019-04-14T07:21:49.433Z,6893
2019-04-14T07:22:49.153Z,7063
2019-04-14T07:23:49.173Z,7234
2019-04-14T07:24:49.175Z,7255
2019-04-14T07:25:49.180Z,7778
2019-04-14T07:26:49.221Z,7914
2019-04-14T07:27:49.250Z,7717
2019-04-14T07:28:56.391Z,7910
2019-04-14T07:29:49.432Z,7286
2019-04-14T07:30:49.439Z,7473
2019-04-14T07:31:49.450Z,7511
2019-04-14T07:32:49.480Z,7630
2019-04-14T07:33:49.515Z,8531
2019-04-14T07:34:49.556Z,8490
2019-04-14T07:35:49.555Z,7511
2019-04-14T07:36:49.630Z,7259
2019-04-14T07:37:49.727Z,7470
2019-04-14T07:38:49.746Z,7554
2019-04-14T07:39:49.772Z,7539
2019-04-14T07:40:49.766Z,7628
2019-04-14T07:41:49.911Z,7504
2019-04-14T07:42:49.950Z,7721
2019-04-14T07:43:50.018Z,7621
2019-04-14T07:44:50.018Z,8015
2019-04-14T07:45:50.046Z,8269
2019-04-14T07:46:50.061Z,8860
2019-04-14T07:47:50.091Z,9638
2019-04-14T07:48:50.086Z,9875
2019-04-14T07:49:50.117Z,10171
2019-04-14T07:50:50.138Z,10168
2019-04-14T07:51:50.186Z,9370
2019-04-14T07:52:50.248Z,9157
2019-04-14T07:53:50.272Z,9726
2019-04-14T07:54:50.306Z,9875
2019-04-14T07:55:50.367Z,9388
2019-04-14T07:56:50.506Z,9616
2019-04-14T07:57:50.534Z,9385
2019-04-14T07:58:50.556Z,10595
2019-04-14T07:59:50.629Z,9513
2019-04-14T08:00:50.663Z,9756
2019-04-14T08:01:50.683Z,9415
2019-04-14T08:02:50.704Z,9828
2019-04-14T08:03:50.782Z,9583
2019-04-14T08:04:50.778Z,9991
2019-04-14T08:05:50.788Z,9278
2019-04-14T08:06:50.905Z,9559
2019-04-14T08:07:50.864Z,9644
2019-04-14T08:08:50.934Z,9655
2019-04-14T08:09:50.981Z,9856
2019-04-14T08:10:51.003Z,9799
2019-04-14T08:11:51.027Z,17366
2019-04-14T08:12:51.050Z,22904
2019-04-14T08:13:51.095Z,27112
2019-04-14T08:14:51.150Z,18128
2019-04-14T08:15:51.178Z,19360
2019-04-14T08:16:51.202Z,29416
2019-04-14T08:17:51.225Z,35048
2019-04-14T08:18:51.405Z,30576
2019-04-14T08:19:51.406Z,25008
2019-04-14T08:20:51.454Z,22936
2019-04-14T08:21:51.568Z,25960
2019-04-14T08:22:51.575Z,24056
2019-04-14T08:23:51.792Z,22560
2019-04-14T08:24:51.864Z,25032
2019-04-14T08:25:51.840Z,27640
2019-04-14T08:26:51.856Z,23640
2019-04-14T08:27:52.030Z,27616
2019-04-14T08:28:52.045Z,27136
2019-04-14T08:29:52.048Z,24848
2019-04-14T08:30:52.198Z,24000
2019-04-14T08:31:52.186Z,19984
2019-04-14T08:32:52.323Z,21904
2019-04-14T08:33:52.323Z,23824
2019-04-14T08:34:52.480Z,25008
2019-04-14T08:35:52.653Z,18944
2019-04-14T08:36:52.669Z,24344
2019-04-14T08:37:52.669Z,22664
2019-04-14T08:38:52.700Z,16256
2019-04-14T08:39:52.789Z,15300
2019-04-14T08:40:52.828Z,14191
2019-04-14T08:41:52.794Z,17576
2019-04-14T08:42:52.930Z,31592
2019-04-14T08:43:53.081Z,37624
2019-04-14T08:44:53.118Z,34304
2019-04-14T08:45:53.196Z,29304
2019-04-14T08:46:53.389Z,30944
2019-04-14T08:47:53.374Z,34168
2019-04-14T08:48:53.401Z,27584
2019-04-14T08:49:53.505Z,32576
2019-04-14T08:50:53.534Z,41384
2019-04-14T08:51:53.514Z,25576
2019-04-14T08:52:53.536Z,19216
2019-04-14T08:53:53.544Z,17072
2019-04-14T08:54:53.617Z,18984
2019-04-14T08:55:53.643Z,17664
2019-04-14T08:56:53.740Z,16664
2019-04-14T08:57:53.717Z,20112
2019-04-14T08:58:54.832Z,26064
2019-04-14T08:59:54.043Z,25808
2019-04-14T09:00:54.027Z,29232
2019-04-14T09:01:54.033Z,24792
2019-04-14T09:02:54.070Z,22720
2019-04-14T09:03:54.052Z,17448
2019-04-14T09:04:54.083Z,20880
2019-04-14T09:05:54.073Z,22056
2019-04-14T09:06:54.262Z,30224
2019-04-14T09:07:54.274Z,23496
2019-04-14T09:08:54.277Z,14784
2019-04-14T09:09:54.352Z,24320
2019-04-14T09:10:54.347Z,29488
2019-04-14T09:11:54.379Z,31280
2019-04-14T09:12:55.493Z,22944
2019-04-14T09:13:54.652Z,20712
2019-04-14T09:14:57.050Z,25280
2019-04-14T09:15:54.645Z,35512
2019-04-14T09:16:54.672Z,30240
2019-04-14T09:17:54.688Z,18512
2019-04-14T09:19:06.867Z,16944
2019-04-14T09:19:55.916Z,23896
2019-04-14T09:20:54.906Z,33960
2019-04-14T09:21:54.893Z,41928
2019-04-14T09:22:54.894Z,15550
2019-04-14T09:23:56.862Z,29104
2019-04-14T09:24:54.919Z,45608
2019-04-14T09:25:54.958Z,44408
2019-04-14T09:26:54.973Z,19344
2019-04-14T09:27:55.142Z,37000
2019-04-14T09:28:55.273Z,32200
2019-04-14T09:29:55.263Z,39552
2019-04-14T09:30:55.317Z,33864
2019-04-14T09:31:55.351Z,34248
2019-04-14T09:32:55.391Z,37344
2019-04-14T09:33:55.450Z,33496
2019-04-14T09:34:55.467Z,23280
2019-04-14T09:35:55.540Z,24248
2019-04-14T09:36:55.570Z,24472
2019-04-14T09:37:55.572Z,16693
2019-04-14T09:38:55.591Z,18608
2019-04-14T09:39:55.576Z,14691
2019-04-14T09:40:55.605Z,19240
2019-04-14T09:41:55.639Z,16864
2019-04-14T09:42:57.715Z,16504
2019-04-14T09:43:55.756Z,23024
2019-04-14T09:44:55.898Z,24640
2019-04-14T09:45:56.088Z,22432
2019-04-14T09:46:56.120Z,29696
2019-04-14T09:47:57.115Z,31912
2019-04-14T09:48:56.269Z,34840
2019-04-14T09:49:56.271Z,13112
2019-04-14T09:51:04.474Z,16111
2019-04-14T09:51:56.450Z,21160
2019-04-14T09:52:56.498Z,27624
2019-04-14T09:53:56.483Z,26336
2019-04-14T09:54:56.639Z,24464
2019-04-14T09:55:56.636Z,22864
2019-04-14T09:56:56.672Z,28888
2019-04-14T09:57:57.788Z,20280
2019-04-14T09:58:56.936Z,29992
2019-04-14T09:59:56.963Z,37128
2019-04-14T10:00:56.985Z,27808
2019-04-14T10:01:57.153Z,20728
2019-04-14T10:02:57.276Z,21656
2019-04-14T10:03:57.337Z,26992
2019-04-14T10:04:57.290Z,29016
2019-04-14T10:05:57.308Z,21168
2019-04-14T10:06:57.323Z,19936
2019-04-14T10:07:57.375Z,19864
2019-04-14T10:08:57.362Z,19016
2019-04-14T10:09:57.350Z,19840
2019-04-14T10:10:57.351Z,25720
2019-04-14T10:11:57.365Z,26016
2019-04-14T10:12:57.358Z,31664
2019-04-14T10:13:57.383Z,20920
2019-04-14T10:14:57.429Z,42240
2019-04-14T10:15:57.472Z,24312
2019-04-14T10:16:57.498Z,15522
2019-04-14T10:17:57.768Z,17688
2019-04-14T10:18:57.763Z,36632
2019-04-14T10:19:57.847Z,46192
2019-04-14T10:20:57.957Z,44168
2019-04-14T10:21:58.938Z,22160
2019-04-14T10:22:58.081Z,17251
2019-04-14T10:23:58.113Z,19832
2019-04-14T10:24:58.160Z,41728
2019-04-14T10:25:58.184Z,52488
2019-04-14T10:26:58.193Z,33184
2019-04-14T10:27:58.255Z,38552
2019-04-14T10:28:58.274Z,40800
2019-04-14T10:29:58.362Z,33624
2019-04-14T10:30:58.478Z,28824
2019-04-14T10:31:58.552Z,28832
2019-04-14T10:32:58.562Z,22632
2019-04-14T10:33:58.598Z,33616
2019-04-14T10:34:59.594Z,27760
2019-04-14T10:35:58.750Z,39272
2019-04-14T10:36:58.768Z,39296
2019-04-14T10:37:58.781Z,47544
2019-04-14T10:38:58.875Z,45384
2019-04-14T10:39:58.900Z,45200
2019-04-14T10:40:59.094Z,47584
2019-04-14T10:41:59.034Z,48720
2019-04-14T10:42:59.169Z,49384
2019-04-14T10:43:59.291Z,46416
2019-04-14T10:44:59.278Z,26088
2019-04-14T10:45:59.294Z,29472
2019-04-14T10:46:59.452Z,30928
2019-04-14T10:47:59.605Z,36856
2019-04-14T10:48:59.742Z,46216
2019-04-14T10:49:59.809Z,51632
2019-04-14T10:50:59.933Z,23560
2019-04-14T10:52:00.052Z,47928
2019-04-14T10:53:00.072Z,20048
2019-04-14T10:54:00.183Z,37384
2019-04-14T10:55:01.136Z,38400
2019-04-14T10:56:00.172Z,47760
2019-04-14T10:57:01.139Z,36008
2019-04-14T10:58:00.305Z,17568
2019-04-14T10:59:00.440Z,16652
2019-04-14T11:00:00.385Z,16141
2019-04-14T11:01:00.503Z,65535
2019-04-14T11:02:00.497Z,65535
2019-04-14T11:03:00.525Z,65535
2019-04-14T11:04:00.537Z,40056
2019-04-14T11:05:00.527Z,41800
2019-04-14T11:06:00.593Z,32752
2019-04-14T11:07:00.640Z,17368
2019-04-14T11:08:00.699Z,65535
2019-04-14T11:09:00.848Z,65535
2019-04-14T11:10:00.989Z,65535
2019-04-14T11:11:00.977Z,64632
2019-04-14T11:12:00.995Z,19576
2019-04-14T11:13:02.013Z,65535
2019-04-14T11:14:01.104Z,65535
2019-04-14T11:15:01.148Z,23120
2019-04-14T11:16:01.175Z,17800
2019-04-14T11:17:01.280Z,15256
2019-04-14T11:18:01.311Z,55416
2019-04-14T11:19:01.473Z,17252
2019-04-14T11:20:01.568Z,13901
2019-04-14T11:21:01.598Z,13043
2019-04-14T11:22:01.660Z,55000
2019-04-14T11:23:03.356Z,25904
2019-04-14T11:24:01.768Z,65535
2019-04-14T11:25:01.932Z,65535
2019-04-14T11:26:02.055Z,65535
2019-04-14T11:27:02.114Z,17224
2019-04-14T11:28:02.262Z,15656
2019-04-14T11:29:02.422Z,12624
2019-04-14T11:30:02.457Z,11554
2019-04-14T11:31:02.474Z,15115
2019-04-14T11:32:02.542Z,41024
2019-04-14T11:33:02.700Z,19392
2019-04-14T11:34:02.804Z,60240
2019-04-14T11:35:02.989Z,50120
2019-04-14T11:36:03.135Z,60248
2019-04-14T11:37:03.092Z,65535
2019-04-14T11:38:03.261Z,65535
2019-04-14T11:39:03.329Z,26008
2019-04-14T11:40:03.459Z,52432
2019-04-14T11:41:03.534Z,22880
2019-04-14T11:42:03.674Z,23280
2019-04-14T11:43:03.752Z,41392
2019-04-14T11:44:03.784Z,65535
2019-04-14T11:45:03.850Z,17430
2019-04-14T11:46:04.257Z,14517
2019-04-14T11:47:03.958Z,13739
2019-04-14T11:48:03.980Z,15815
2019-04-14T11:49:04.054Z,18400
2019-04-14T11:50:04.127Z,18376
2019-04-14T11:51:04.123Z,16556
2019-04-14T11:52:04.203Z,65535
2019-04-14T11:53:04.220Z,39312
2019-04-14T11:54:04.237Z,15346
2019-04-14T11:55:04.272Z,63560
2019-04-14T11:56:04.413Z,65535
2019-04-14T11:57:04.395Z,65535
2019-04-14T11:58:04.529Z,65535
2019-04-14T11:59:04.658Z,65535
2019-04-14T12:00:05.783Z,65535
2019-04-14T12:01:04.883Z,44232
2019-04-14T12:02:04.958Z,49792
2019-04-14T12:03:04.996Z,24576
2019-04-14T12:04:04.990Z,65535
2019-04-14T12:05:05.045Z,19056
2019-04-14T12:06:05.083Z,17136
2019-04-14T12:07:05.169Z,15654
2019-04-14T12:08:05.156Z,17000
2019-04-14T12:09:05.290Z,20496
2019-04-14T12:10:05.450Z,22616
2019-04-14T12:11:05.545Z,30232
2019-04-14T12:12:05.667Z,41560
2019-04-14T12:13:05.705Z,21472
2019-04-14T12:14:05.700Z,22584
2019-04-14T12:15:07.571Z,23504
2019-04-14T12:16:06.871Z,29416
2019-04-14T12:17:05.881Z,18312
2019-04-14T12:18:05.853Z,17800
2019-04-14T12:19:05.867Z,40672
2019-04-14T12:20:06.978Z,65535
2019-04-14T12:21:06.080Z,62864
2019-04-14T12:22:08.342Z,61688
2019-04-14T12:23:06.186Z,65535
2019-04-14T12:24:07.334Z,65535
2019-04-14T12:25:06.436Z,65535
2019-04-14T12:26:06.560Z,65535
2019-04-14T12:27:06.690Z,65535
2019-04-14T12:28:06.993Z,65535
2019-04-14T12:29:06.784Z,29384
2019-04-14T12:30:06.908Z,18848
2019-04-14T12:31:06.902Z,13773
2019-04-14T12:32:07.014Z,10502
2019-04-14T12:33:07.048Z,10935
2019-04-14T12:34:07.038Z,13609
2019-04-14T12:35:08.090Z,49392
2019-04-14T12:36:07.181Z,55816
2019-04-14T12:37:07.362Z,60464
2019-04-14T12:38:07.434Z,65535
2019-04-14T12:39:08.507Z,27992
2019-04-14T12:40:07.598Z,65535
2019-04-14T12:41:08.212Z,41416
2019-04-14T12:42:07.709Z,16074
2019-04-14T12:43:07.719Z,18448
2019-04-14T12:44:07.721Z,26080
2019-04-14T12:45:07.759Z,20264
2019-04-14T12:46:07.890Z,17648
2019-04-14T12:47:08.185Z,15196
2019-04-14T12:48:08.138Z,15049
2019-04-14T12:49:08.121Z,13689
2019-04-14T12:50:08.266Z,12949
2019-04-14T12:51:08.373Z,13497
2019-04-14T12:52:20.251Z,14041
2019-04-14T12:53:09.489Z,21288
2019-04-14T12:54:08.522Z,22160
2019-04-14T12:55:08.518Z,61864
2019-04-14T12:56:08.684Z,59648
2019-04-14T12:57:08.760Z,59264
2019-04-14T12:58:11.096Z,65535
2019-04-14T12:59:08.920Z,65535
2019-04-14T13:00:09.001Z,65535
2019-04-14T13:01:09.120Z,65535
2019-04-14T13:02:11.041Z,61608
2019-04-14T13:03:09.268Z,65535
2019-04-14T13:04:09.394Z,65535
2019-04-14T13:05:09.506Z,65535
2019-04-14T13:06:09.491Z,17752
2019-04-14T13:07:09.652Z,13812
2019-04-14T13:08:09.660Z,14613
2019-04-14T13:09:09.753Z,20280
2019-04-14T13:10:09.697Z,65535
2019-04-14T13:11:09.824Z,65535
2019-04-14T13:12:10.373Z,65535
2019-04-14T13:13:10.020Z,54960
2019-04-14T13:14:10.041Z,16240
2019-04-14T13:15:10.041Z,18920
2019-04-14T13:16:10.051Z,13370
2019-04-14T13:17:10.200Z,12459
2019-04-14T13:18:10.347Z,12909
2019-04-14T13:19:10.436Z,15905
2019-04-14T13:20:10.504Z,65535
2019-04-14T13:21:10.640Z,65535
2019-04-14T13:22:10.762Z,53688
2019-04-14T13:23:10.931Z,38816
2019-04-14T13:24:10.877Z,42672
2019-04-14T13:25:11.011Z,65535
2019-04-14T13:26:11.168Z,65535
2019-04-14T13:27:11.289Z,53512
2019-04-14T13:28:11.497Z,44384
2019-04-14T13:29:11.450Z,61456
2019-04-14T13:30:11.497Z,65535
2019-04-14T13:31:11.459Z,65535
2019-04-14T13:32:11.528Z,12963
2019-04-14T13:33:11.718Z,10022
2019-04-14T13:34:11.761Z,8944
2019-04-14T13:35:11.823Z,9058
2019-04-14T13:36:11.931Z,10521
2019-04-14T13:37:12.062Z,15055
2019-04-14T13:38:12.147Z,41328
2019-04-14T13:39:12.744Z,41648
2019-04-14T13:40:12.382Z,54792
2019-04-14T13:41:12.495Z,65535
2019-04-14T13:42:12.604Z,39016
2019-04-14T13:43:12.614Z,8803
2019-04-14T13:44:12.639Z,7744
2019-04-14T13:45:12.751Z,7109
2019-04-14T13:46:12.768Z,7434
2019-04-14T13:47:12.775Z,8209
2019-04-14T13:48:12.817Z,9901
2019-04-14T13:49:12.841Z,14067
2019-04-14T13:50:12.837Z,57056
2019-04-14T13:51:12.924Z,40336
2019-04-14T13:52:13.052Z,65535
2019-04-14T13:53:13.155Z,41960
2019-04-14T13:54:13.316Z,41352
2019-04-14T13:55:13.289Z,61456
2019-04-14T13:56:13.410Z,65535
2019-04-14T13:57:13.736Z,54040